createdAt,value
2018-05-15T00:00:27.877Z,3.70
2018-05-15T00:02:55.372Z,3.65
2018-05-15T00:05:22.885Z,3.70
2018-05-15T00:07:50.387Z,4.40
2018-05-15T00:10:17.893Z,3.60
2018-05-15T00:12:45.403Z,3.65
2018-05-15T00:15:12.909Z,3.78
2018-05-15T00:17:40.401Z,3.60
2018-05-15T00:20:08.672Z,4.22
2018-05-15T00:22:36.933Z,3.92
2018-05-15T00:25:04.455Z,3.58
2018-05-15T00:27:31.978Z,3.50
2018-05-15T00:30:00.292Z,3.80
2018-05-15T00:32:27.917Z,4.12
2018-05-15T00:34:56.182Z,4.00
2018-05-15T00:37:23.821Z,3.95
2018-05-15T00:39:51.369Z,3.80
2018-05-15T00:42:18.872Z,4.00
2018-05-15T00:44:47.130Z,3.78
2018-05-15T00:47:14.639Z,3.92
2018-05-15T00:49:42.185Z,3.80
2018-05-15T00:52:09.677Z,4.15
2018-05-15T00:54:37.204Z,4.10
2018-05-15T00:57:04.720Z,4.30
2018-05-15T00:59:32.371Z,4.03
2018-05-15T01:01:59.946Z,4.30
2018-05-15T01:04:27.454Z,4.30
2018-05-15T01:06:54.958Z,4.35
2018-05-15T01:09:22.477Z,3.70
2018-05-15T01:11:50.077Z,4.30
2018-05-15T01:14:17.665Z,3.95
2018-05-15T01:16:45.929Z,4.45
2018-05-15T01:19:13.436Z,4.57
2018-05-15T01:21:40.948Z,4.40
2018-05-15T01:24:08.454Z,4.18
2018-05-15T01:26:35.968Z,4.40
2018-05-15T01:29:04.243Z,4.35
2018-05-15T01:31:32.522Z,4.35
2018-05-15T01:34:00.795Z,4.40
2018-05-15T01:36:28.306Z,4.05
2018-05-15T01:38:55.852Z,4.20
2018-05-15T01:41:23.447Z,4.22
2018-05-15T01:43:50.990Z,4.25
2018-05-15T01:46:18.510Z,4.18
2018-05-15T01:48:46.775Z,4.50
2018-05-15T01:51:15.399Z,4.45
2018-05-15T01:53:42.949Z,4.43
2018-05-15T01:56:10.446Z,4.35
2018-05-15T01:58:37.949Z,4.60
2018-05-15T02:01:06.222Z,4.10
2018-05-15T02:03:38.593Z,5.20
2018-05-15T02:06:06.862Z,4.15
2018-05-15T02:08:34.405Z,4.90
2018-05-15T02:11:01.942Z,4.40
2018-05-15T02:13:29.457Z,4.35
2018-05-15T02:15:57.717Z,4.57
2018-05-15T02:18:25.989Z,4.43
2018-05-15T02:20:53.484Z,4.35
2018-05-15T02:23:20.988Z,4.57
2018-05-15T02:25:48.505Z,5.05
2018-05-15T02:28:16.610Z,5.15
2018-05-15T02:40:29.146Z,5.30
2018-05-15T02:42:56.669Z,5.68
2018-05-15T02:45:24.706Z,5.43
2018-05-15T02:47:52.257Z,5.22
2018-05-15T02:50:19.898Z,5.12
2018-05-15T02:52:47.405Z,5.40
2018-05-15T02:55:15.009Z,5.50
2018-05-15T02:57:42.533Z,5.05
2018-05-15T03:00:10.062Z,4.80
2018-05-15T03:02:37.550Z,5.37
2018-05-15T03:05:05.121Z,5.80
2018-05-15T03:07:32.649Z,5.00
2018-05-15T03:10:00.146Z,5.62
2018-05-15T03:12:28.053Z,5.70
2018-05-15T03:14:55.548Z,5.72
2018-05-15T03:17:23.057Z,5.60
2018-05-15T03:19:50.550Z,5.97
2018-05-15T03:22:18.092Z,5.55
2018-05-15T03:24:45.598Z,5.70
2018-05-15T03:27:13.119Z,5.87
2018-05-15T03:29:40.621Z,5.95
2018-05-15T03:32:08.119Z,6.15
2018-05-15T03:34:35.630Z,6.15
2018-05-15T03:50:08.930Z,6.43
2018-05-15T03:52:37.198Z,6.95
2018-05-15T03:55:04.715Z,6.35
2018-05-15T03:57:32.505Z,6.15
2018-05-15T04:00:00.048Z,5.93
2018-05-15T04:02:39.255Z,5.78
2018-05-15T04:05:18.770Z,6.37
2018-05-15T04:07:58.896Z,6.50
2018-05-15T04:10:26.435Z,5.85
2018-05-15T04:12:53.934Z,6.55
2018-05-15T04:15:22.214Z,6.25
2018-05-15T04:17:50.502Z,6.65
2018-05-15T04:20:18.831Z,6.30
2018-05-15T04:22:46.382Z,6.45
2018-05-15T04:25:13.906Z,6.72
2018-05-15T04:27:42.172Z,6.28
2018-05-15T04:30:10.432Z,6.40
2018-05-15T04:32:37.948Z,6.37
2018-05-15T04:35:05.489Z,6.80
2018-05-15T04:37:32.992Z,6.28
2018-05-15T04:40:00.516Z,6.70
2018-05-15T04:42:28.025Z,6.30
2018-05-15T04:44:55.958Z,6.05
2018-05-15T04:47:23.498Z,6.20
2018-05-15T04:49:51.013Z,6.18
2018-05-15T04:52:18.533Z,6.37
2018-05-15T04:54:46.024Z,6.07
2018-05-15T04:57:13.577Z,5.75
2018-05-15T04:59:41.125Z,6.53
2018-05-15T05:02:08.731Z,6.18
2018-05-15T05:04:36.157Z,5.97
2018-05-15T05:07:03.664Z,6.18
2018-05-15T05:09:31.181Z,6.72
2018-05-15T05:11:58.672Z,6.00
2018-05-15T05:14:27.073Z,6.25
2018-05-15T05:16:54.603Z,6.55
2018-05-15T05:19:22.901Z,5.90
2018-05-15T05:21:50.398Z,6.80
2018-05-15T05:24:17.904Z,6.40
2018-05-15T05:26:46.178Z,6.12
2018-05-15T05:29:14.669Z,6.70
2018-05-15T05:31:42.215Z,6.85
2018-05-15T05:34:10.468Z,6.75
2018-05-15T05:36:37.989Z,7.05
2018-05-15T05:39:05.486Z,6.28
2018-05-15T05:41:32.995Z,6.43
2018-05-15T05:44:00.492Z,6.32
2018-05-15T05:46:28.010Z,6.20
2018-05-15T05:48:55.510Z,5.65
2018-05-15T05:51:23.044Z,6.32
2018-05-15T05:53:50.546Z,6.25
2018-05-15T05:56:18.127Z,6.78
2018-05-15T05:58:46.412Z,6.85
2018-05-15T06:01:13.909Z,6.55
2018-05-15T06:03:41.506Z,6.40
2018-05-15T06:06:09.020Z,6.68
2018-05-15T06:08:36.533Z,6.60
2018-05-15T06:11:04.818Z,7.07
2018-05-15T06:13:32.341Z,6.32
2018-05-15T06:15:59.845Z,6.70
2018-05-15T06:18:27.417Z,6.43
2018-05-15T06:20:54.927Z,6.95
2018-05-15T06:23:22.508Z,6.45
2018-05-15T06:25:51.717Z,6.62
2018-05-15T06:28:19.995Z,6.93
2018-05-15T06:30:48.274Z,6.72
2018-05-15T06:33:16.533Z,7.00
2018-05-15T06:35:44.810Z,6.55
2018-05-15T06:38:13.077Z,6.85
2018-05-15T06:40:40.590Z,6.80
2018-05-15T06:43:08.116Z,6.12
2018-05-15T06:45:36.425Z,6.85
2018-05-15T06:48:03.981Z,6.60
2018-05-15T06:50:31.514Z,6.00
2018-05-15T06:52:59.792Z,6.68
2018-05-15T06:55:28.059Z,6.75
2018-05-15T06:57:56.325Z,6.82
2018-05-15T07:00:23.874Z,6.18
2018-05-15T07:02:51.388Z,6.47
2018-05-15T07:05:18.910Z,6.53
2018-05-15T07:07:47.622Z,6.90
2018-05-15T07:10:15.054Z,6.47
2018-05-15T07:12:43.370Z,6.18
2018-05-15T07:15:10.867Z,6.37
2018-05-15T07:17:38.401Z,6.20
2018-05-15T07:20:06.473Z,6.18
2018-05-15T07:22:33.977Z,5.95
2018-05-15T07:25:01.496Z,6.43
2018-05-15T07:27:29.096Z,6.00
2018-05-15T07:29:56.825Z,5.90
2018-05-15T07:32:24.321Z,6.12
2018-05-15T07:34:52.603Z,6.30
2018-05-15T07:37:20.877Z,5.95
2018-05-15T07:39:53.425Z,5.75
2018-05-15T07:42:24.903Z,5.57
2018-05-15T07:44:52.981Z,5.37
2018-05-15T07:47:21.257Z,5.82
2018-05-15T07:49:49.585Z,5.45
2018-05-15T07:52:17.174Z,5.25
2018-05-15T07:54:44.698Z,5.65
2018-05-15T07:57:12.213Z,5.57
2018-05-15T07:59:40.537Z,5.10
2018-05-15T08:02:08.128Z,5.20
2018-05-15T08:04:36.325Z,4.57
2018-05-15T08:07:03.833Z,4.90
2018-05-15T08:09:31.353Z,5.00
2018-05-15T08:11:59.640Z,5.00
2018-05-15T08:14:27.903Z,5.32
2018-05-15T08:16:56.226Z,4.78
2018-05-15T08:19:23.784Z,5.00
2018-05-15T08:21:51.300Z,4.85
2018-05-15T08:24:19.590Z,5.18
2018-05-15T08:26:47.111Z,5.07
2018-05-15T08:29:14.629Z,5.12
2018-05-15T08:31:42.710Z,4.37
2018-05-15T08:34:10.261Z,4.62
2018-05-15T08:36:37.802Z,4.82
2018-05-15T08:39:06.282Z,4.57
2018-05-15T08:41:34.573Z,4.43
2018-05-15T08:44:05.761Z,4.37
2018-05-15T08:46:33.265Z,4.40
2018-05-15T08:49:00.774Z,4.57
2018-05-15T08:51:28.426Z,4.78
2018-05-15T08:53:55.900Z,4.30
2018-05-15T08:56:23.499Z,3.95
2018-05-15T08:58:55.921Z,4.35
2018-05-15T09:01:23.765Z,4.62
2018-05-15T09:03:51.286Z,4.12
2018-05-15T09:06:19.950Z,4.22
2018-05-15T09:08:47.455Z,4.40
2018-05-15T09:11:18.941Z,4.22
2018-05-15T09:13:46.474Z,4.00
2018-05-15T09:16:14.326Z,4.40
2018-05-15T09:18:44.465Z,4.55
2018-05-15T09:21:12.018Z,4.20
2018-05-15T09:23:39.595Z,4.90
2018-05-15T09:26:07.250Z,4.50
2018-05-15T09:28:34.864Z,4.15
2018-05-15T09:31:03.070Z,4.28
2018-05-15T09:33:30.601Z,4.25
2018-05-15T09:35:58.688Z,4.12
2018-05-15T09:38:26.988Z,3.95
2018-05-15T09:40:55.640Z,4.25
2018-05-15T09:43:50.865Z,4.00
2018-05-15T09:46:23.182Z,4.15
2018-05-15T09:48:51.542Z,4.05
2018-05-15T09:51:19.048Z,4.60
2018-05-15T09:53:47.501Z,4.43
2018-05-15T09:56:15.107Z,6.32
2018-05-15T09:58:43.372Z,4.05
2018-05-15T10:01:11.190Z,4.10
2018-05-15T10:03:38.731Z,4.10
2018-05-15T10:06:06.240Z,3.75
2018-05-15T10:08:33.751Z,4.20
2018-05-15T10:11:01.316Z,4.20
2018-05-15T10:13:28.840Z,4.37
2018-05-15T10:29:01.402Z,4.00
2018-05-15T10:31:28.893Z,3.97
2018-05-15T10:34:23.186Z,3.72
2018-05-15T10:36:52.046Z,4.40
2018-05-15T10:39:20.321Z,3.75
2018-05-15T10:41:48.581Z,3.83
2018-05-15T10:44:16.121Z,3.85
2018-05-15T10:46:47.471Z,4.10
2018-05-15T10:49:14.985Z,3.90
2018-05-15T10:51:42.569Z,3.53
2018-05-15T10:54:13.937Z,3.85
2018-05-15T10:56:41.464Z,3.47
2018-05-15T10:59:09.694Z,3.92
2018-05-15T11:01:37.187Z,3.65
2018-05-15T11:04:04.737Z,3.55
2018-05-15T11:06:33.019Z,4.00
2018-05-15T11:18:51.353Z,3.92
2018-05-15T11:21:31.518Z,3.83
2018-05-15T11:24:21.653Z,3.40
2018-05-15T11:26:49.567Z,3.58
2018-05-15T11:29:17.056Z,3.45
2018-05-15T11:31:44.608Z,3.45
2018-05-15T11:34:12.798Z,3.40
2018-05-15T11:36:40.306Z,3.55
2018-05-15T11:39:08.189Z,3.72
2018-05-15T11:41:35.788Z,3.75
2018-05-15T11:45:37.473Z,3.80
2018-05-15T11:48:05.819Z,3.58
2018-05-15T11:50:33.735Z,3.90
2018-05-15T11:53:01.419Z,4.03
2018-05-15T11:55:28.484Z,5.65
2018-05-15T11:57:56.029Z,4.35
2018-05-15T12:00:24.250Z,3.10
2018-05-15T12:02:51.913Z,3.33
2018-05-15T12:05:20.070Z,3.40
2018-05-15T12:07:47.573Z,3.20
2018-05-15T12:10:15.847Z,3.33
2018-05-15T12:12:44.427Z,3.20
2018-05-15T12:15:12.542Z,3.62
2018-05-15T12:17:40.040Z,3.40
2018-05-15T12:20:08.049Z,3.50
2018-05-15T12:22:35.585Z,3.45
2018-05-15T12:25:03.173Z,3.50
2018-05-15T12:27:30.693Z,3.45
2018-05-15T12:29:58.371Z,3.40
2018-05-15T12:32:30.528Z,3.10
2018-05-15T12:34:58.047Z,2.95
2018-05-15T12:37:25.545Z,3.30
2018-05-15T12:39:53.061Z,4.20
2018-05-15T12:42:20.558Z,3.42
2018-05-15T12:44:48.549Z,3.50
2018-05-15T12:47:16.831Z,3.08
2018-05-15T12:49:45.119Z,3.30
2018-05-15T12:52:12.634Z,3.83
2018-05-15T12:54:40.870Z,3.30
2018-05-15T12:57:08.378Z,3.00
2018-05-15T12:59:35.891Z,3.60
2018-05-15T13:02:03.513Z,3.12
2018-05-15T13:04:31.777Z,3.30
2018-05-15T13:06:59.286Z,3.03
2018-05-15T13:09:26.781Z,3.08
2018-05-15T13:11:54.283Z,3.50
2018-05-15T13:14:22.582Z,3.17
2018-05-15T13:16:50.083Z,3.33
2018-05-15T13:19:17.634Z,3.62
2018-05-15T13:21:53.551Z,3.60
2018-05-15T13:24:21.389Z,3.30
2018-05-15T13:26:48.867Z,3.83
2018-05-15T13:29:16.381Z,4.55
2018-05-15T13:31:44.300Z,3.72
2018-05-15T13:34:11.805Z,3.72
2018-05-15T13:36:39.334Z,3.70
2018-05-15T13:39:07.021Z,3.72
2018-05-15T13:41:34.525Z,4.10
2018-05-15T13:44:02.861Z,3.70
2018-05-15T13:46:30.439Z,4.35
2018-05-15T13:48:57.934Z,3.75
2018-05-15T13:51:25.448Z,4.07
2018-05-15T13:53:53.073Z,3.60
2018-05-15T13:56:20.625Z,3.47
2018-05-15T13:58:48.122Z,3.37
2018-05-15T14:01:15.628Z,4.28
2018-05-15T14:03:43.133Z,4.47
2018-05-15T14:06:10.665Z,4.20
2018-05-15T14:08:38.186Z,3.80
2018-05-15T14:11:06.466Z,3.78
2018-05-15T14:13:34.780Z,3.95
2018-05-15T14:16:02.319Z,3.70
2018-05-15T14:18:33.874Z,3.37
2018-05-15T14:21:01.449Z,3.95
2018-05-15T14:23:29.788Z,3.70
2018-05-15T14:25:58.805Z,4.00
2018-05-15T14:28:26.349Z,3.65
2018-05-15T14:30:54.638Z,4.43
2018-05-15T14:33:22.946Z,3.95
2018-05-15T14:35:50.974Z,3.87
2018-05-15T14:38:19.285Z,3.60
2018-05-15T14:40:46.833Z,3.33
2018-05-15T14:43:20.358Z,4.00
2018-05-15T14:45:47.861Z,3.80
2018-05-15T14:48:15.422Z,3.58
2018-05-15T14:53:43.559Z,4.00
2018-05-15T14:56:11.800Z,3.72
2018-05-15T14:58:40.098Z,4.03
2018-05-15T15:01:07.594Z,3.40
2018-05-15T15:03:35.140Z,3.12
2018-05-15T15:06:02.638Z,3.70
2018-05-15T15:08:30.211Z,4.10
2018-05-15T15:10:57.693Z,4.07
2018-05-15T15:13:25.201Z,3.90
2018-05-15T15:15:53.140Z,3.80
2018-05-15T15:18:20.734Z,3.50
2018-05-15T15:20:48.617Z,3.72
2018-05-15T15:23:16.121Z,3.37
2018-05-15T15:25:43.653Z,3.53
2018-05-15T15:28:11.912Z,3.62
2018-05-15T15:30:56.473Z,3.60
2018-05-15T15:33:59.313Z,3.85
2018-05-15T15:36:26.940Z,3.50
2018-05-15T15:38:55.214Z,6.47
2018-05-15T15:41:23.501Z,4.32
2018-05-15T15:43:51.099Z,4.03
2018-05-15T15:46:19.390Z,3.78
2018-05-15T15:48:46.878Z,3.75
2018-05-15T15:51:15.185Z,4.05
2018-05-15T15:53:42.715Z,3.87
2018-05-15T15:56:10.986Z,3.78
2018-05-15T15:58:38.504Z,3.60
2018-05-15T16:01:05.998Z,4.87
2018-05-15T16:03:33.509Z,4.30
2018-05-15T16:06:01.085Z,3.65
2018-05-15T16:08:28.613Z,3.55
2018-05-15T16:10:56.149Z,4.12
2018-05-15T16:13:24.423Z,3.78
2018-05-15T16:15:52.705Z,3.78
2018-05-15T16:18:20.986Z,4.78
2018-05-15T16:20:49.272Z,4.95
2018-05-15T16:23:16.789Z,3.90
2018-05-15T16:25:44.326Z,3.70
2018-05-15T16:28:11.827Z,4.18
2018-05-15T16:30:39.334Z,3.85
2018-05-15T16:33:06.853Z,3.80
2018-05-15T16:35:35.281Z,3.20
2018-05-15T16:38:02.801Z,4.50
2018-05-15T16:53:35.360Z,4.28
2018-05-15T16:56:03.621Z,4.47
2018-05-15T16:58:31.151Z,4.82
2018-05-15T17:00:58.729Z,4.20
2018-05-15T17:03:26.373Z,4.70
2018-05-15T17:05:53.965Z,4.55
2018-05-15T17:08:21.565Z,3.92
2018-05-15T17:10:49.809Z,4.28
2018-05-15T17:13:18.128Z,4.62
2018-05-15T17:15:45.643Z,4.78
2018-05-15T17:18:13.150Z,4.93
2018-05-15T17:20:40.726Z,5.03
2018-05-15T17:23:08.239Z,4.78
2018-05-15T17:25:36.530Z,7.70
2018-05-15T17:28:04.058Z,5.90
2018-05-15T17:30:31.584Z,5.78
2018-05-15T17:32:59.143Z,5.87
2018-05-15T17:35:26.714Z,6.00
2018-05-15T17:37:54.213Z,5.32
2018-05-15T17:40:22.496Z,4.85
2018-05-15T17:42:50.017Z,5.80
2018-05-15T17:45:17.545Z,5.72
2018-05-15T17:47:45.059Z,5.32
2018-05-15T17:50:13.346Z,5.60
2018-05-15T17:52:41.723Z,5.68
2018-05-15T17:55:09.205Z,5.75
2018-05-15T17:57:36.725Z,6.60
2018-05-15T18:00:04.223Z,5.32
2018-05-15T18:02:31.757Z,6.28
2018-05-15T18:05:00.077Z,6.53
2018-05-15T18:07:27.613Z,6.68
2018-05-15T18:09:55.132Z,6.85
2018-05-15T18:12:22.662Z,6.30
2018-05-15T18:14:50.166Z,6.68
2018-05-15T18:17:18.454Z,7.05
2018-05-15T18:19:45.968Z,6.50
2018-05-15T18:22:13.477Z,5.75
2018-05-15T18:24:41.030Z,5.53
2018-05-15T18:27:08.545Z,6.30
2018-05-15T18:29:36.074Z,6.60
2018-05-15T18:32:03.581Z,9.07
2018-05-15T18:34:31.177Z,7.00
2018-05-15T18:36:58.827Z,5.10
2018-05-15T18:39:27.309Z,5.60
2018-05-15T18:41:55.578Z,6.15
2018-05-15T18:44:23.835Z,5.10
2018-05-15T18:46:51.363Z,5.90
2018-05-15T18:49:18.865Z,6.43
2018-05-15T18:51:46.399Z,5.82
2018-05-15T18:54:13.907Z,5.72
2018-05-15T18:56:41.445Z,6.12
2018-05-15T18:59:09.710Z,6.12
2018-05-15T19:01:37.278Z,6.03
2018-05-15T19:04:04.801Z,6.07
2018-05-15T19:06:32.339Z,6.40
2018-05-15T19:08:59.841Z,6.43
2018-05-15T19:11:27.378Z,5.93
2018-05-15T19:13:54.904Z,6.30
2018-05-15T19:16:22.431Z,6.72
2018-05-15T19:18:49.993Z,7.30
2018-05-15T19:21:18.313Z,7.45
2018-05-15T19:23:45.855Z,6.90
2018-05-15T19:26:13.494Z,6.68
2018-05-15T19:28:41.775Z,6.80
2018-05-15T19:31:15.927Z,7.18
2018-05-15T19:33:58.305Z,6.35
2018-05-15T19:36:31.666Z,6.70
2018-05-15T19:39:05.035Z,7.28
2018-05-15T19:41:32.806Z,6.30
2018-05-15T19:44:00.325Z,7.30
2018-05-15T19:46:32.499Z,6.97
2018-05-15T19:49:00.006Z,7.40
2018-05-15T19:51:27.522Z,7.25
2018-05-15T19:53:55.069Z,6.22
2018-05-15T19:56:23.360Z,6.07
2018-05-15T19:58:50.907Z,5.62
2018-05-15T20:01:23.285Z,5.50
2018-05-15T20:03:50.822Z,5.75
2018-05-15T20:06:18.357Z,7.60
2018-05-15T20:21:46.682Z,6.12
2018-05-15T20:24:14.209Z,6.62
2018-05-15T20:26:41.814Z,7.05
2018-05-15T20:29:09.327Z,7.20
2018-05-15T20:31:36.869Z,6.85
2018-05-15T20:34:04.382Z,7.15
2018-05-15T20:36:31.919Z,6.90
2018-05-15T20:39:00.190Z,6.90
2018-05-15T20:41:28.478Z,8.32
2018-05-15T20:43:56.772Z,7.53
2018-05-15T20:46:24.292Z,7.60
2018-05-15T20:48:51.833Z,7.25
2018-05-15T20:51:19.395Z,8.55
2018-05-15T20:53:46.939Z,8.18
2018-05-15T20:56:14.453Z,7.50
2018-05-15T20:58:42.746Z,8.25
2018-05-15T21:01:10.241Z,8.60
2018-05-15T21:03:37.761Z,8.55
2018-05-15T21:06:05.303Z,8.05
2018-05-15T21:08:33.655Z,7.87
2018-05-15T21:11:01.262Z,7.80
2018-05-15T21:13:28.925Z,8.10
2018-05-15T21:15:56.421Z,7.68
2018-05-15T21:18:24.038Z,7.62
2018-05-15T21:20:51.599Z,8.32
2018-05-15T21:23:19.162Z,8.85
2018-05-15T21:25:46.936Z,7.00
2018-05-15T21:28:14.450Z,8.43
2018-05-15T21:30:41.996Z,7.40
2018-05-15T21:33:09.581Z,7.60
2018-05-15T21:35:37.508Z,7.47
2018-05-15T21:38:05.013Z,8.05
2018-05-15T21:40:33.407Z,7.68
2018-05-15T21:43:01.785Z,8.15
2018-05-15T21:45:30.071Z,7.75
2018-05-15T21:47:57.614Z,7.90
2018-05-15T21:50:25.881Z,8.73
2018-05-15T21:52:54.171Z,8.20
2018-05-15T21:55:21.757Z,8.00
2018-05-15T21:57:49.373Z,7.75
2018-05-15T22:00:16.958Z,8.20
2018-05-15T22:02:45.237Z,8.40
2018-05-15T22:05:12.853Z,8.63
2018-05-15T22:07:40.529Z,9.02
2018-05-15T22:10:08.034Z,8.55
2018-05-15T22:12:47.546Z,9.20
2018-05-15T22:15:27.654Z,9.30
2018-05-15T22:18:07.005Z,8.48
2018-05-15T22:20:46.542Z,8.60
2018-05-15T22:23:13.572Z,9.35
2018-05-15T22:25:41.081Z,10.15
2018-05-15T22:28:09.386Z,9.13
2018-05-15T22:30:36.884Z,9.25
2018-05-15T22:33:04.529Z,9.80
2018-05-15T22:35:32.082Z,8.90
2018-05-15T22:37:59.614Z,8.77
2018-05-15T22:40:27.541Z,9.82
2018-05-15T22:42:55.045Z,9.93
2018-05-15T22:45:22.560Z,9.90
2018-05-15T22:47:50.777Z,10.15
2018-05-15T22:50:19.061Z,9.65
2018-05-15T22:52:46.606Z,9.68
2018-05-15T22:55:14.105Z,9.50
2018-05-15T22:57:41.601Z,9.32
2018-05-15T23:00:09.104Z,9.32
2018-05-15T23:02:36.632Z,9.50
2018-05-15T23:05:04.901Z,9.43
2018-05-15T23:07:32.413Z,9.50
2018-05-15T23:09:59.950Z,10.30
2018-05-15T23:12:28.002Z,10.20
2018-05-15T23:14:56.278Z,10.88
2018-05-15T23:17:24.625Z,10.57
2018-05-15T23:19:52.129Z,11.80
2018-05-15T23:22:32.410Z,11.25
2018-05-15T23:24:59.906Z,11.65
2018-05-15T23:27:27.420Z,11.82
2018-05-15T23:29:54.940Z,11.07
2018-05-15T23:32:22.475Z,10.40
2018-05-15T23:34:49.989Z,10.05
2018-05-15T23:37:17.489Z,11.00
2018-05-15T23:39:45.001Z,10.90
2018-05-15T23:42:12.535Z,10.10
2018-05-15T23:44:40.051Z,11.48
2018-05-15T23:47:07.570Z,10.77
2018-05-15T23:49:35.845Z,11.10
2018-05-15T23:52:04.108Z,11.38
2018-05-15T23:54:31.631Z,11.40
2018-05-15T23:56:59.145Z,12.37
2018-05-15T23:59:27.432Z,11.95
